Terminal Aerodrome Forecast
Issued by NWS

Home | Current Version | Previous Version | Text Only | Print | Product List | Glossary Off
Versions: 1 2 3 4 5 6 7 8 9 10 11 12 13 14 15 16 17 18 19 20

000
FTUS43 KTOP 021100
TAFMHK
TAF
KMHK 021137Z 0212/0312 20006KT P6SM BKN090
     FM021400 19012KT P6SM VCSH BKN090
     FM021800 18012KT P6SM SCT090 BKN250
     FM030000 18008KT P6SM SCT070=

USA.gov is the U.S. government's official web portal to all federal, state and local government web resources and services.